Time;durP1;ratioP1;P1;durP2;ratioP2;P2;SDS_P1;SDS_P2;PMS_P1;PMS_P2;Temp;Humidity;BMP_temperature;BMP_pressure;BME280_temperature;BME280_humidity;BME280_pressure;Samples;Min_cycle;Max_cycle;Signal;HPM_P1;HPM_P2
2022/03/05 00:00:23;;;;;;;;;;;6.70;99.90;;;;;;5033711;28;19943;-80
2022/03/05 00:02:51;;;;;;;;;;;6.70;99.90;;;;;;5037649;28;19931;-80
2022/03/05 00:05:19;;;;;;;;;;;6.70;99.90;;;;;;5018171;28;19929;-79
2022/03/05 00:07:47;;;;;;;;;;;6.70;99.90;;;;;;5008246;28;20444;-79
2022/03/05 00:10:16;;;;;;;;;;;6.60;99.90;;;;;;5024037;28;19937;-80
2022/03/05 00:12:45;;;;;;;;;;;6.60;99.90;;;;;;5035399;28;19938;-81
2022/03/05 00:15:12;;;;;;;;;;;6.70;99.90;;;;;;5015626;28;19925;-79
2022/03/05 00:17:40;;;;;;;;;;;6.60;99.90;;;;;;5037435;28;19925;-79
2022/03/05 00:20:08;;;;;;;;;;;6.60;99.90;;;;;;5040374;28;19925;-79
2022/03/05 00:22:36;;;;;;;;;;;6.60;99.90;;;;;;5023509;28;19929;-80
2022/03/05 00:25:05;;;;;;;;;;;6.60;99.90;;;;;;5007595;28;19936;-80
2022/03/05 00:27:32;;;;;;;;;;;6.60;99.90;;;;;;5041104;28;19932;-81
2022/03/05 00:30:02;;;;;;;;;;;6.60;99.90;;;;;;5025496;28;19941;-79
2022/03/05 00:32:30;;;;;;;;;;;6.50;99.90;;;;;;5008920;28;19932;-78
2022/03/05 00:34:59;;;;;;;;;;;6.50;99.90;;;;;;5020416;28;19929;-79
2022/03/05 00:37:27;;;;;;;;;;;6.50;99.90;;;;;;5006070;28;19926;-79
2022/03/05 00:39:55;;;;;;;;;;;6.50;99.90;;;;;;5021215;28;19929;-80
2022/03/05 00:42:24;;;;;;;;;;;6.50;99.90;;;;;;5026947;28;19939;-78
2022/03/05 00:44:52;;;;;;;;;;;6.40;99.90;;;;;;5043878;28;20004;-78
2022/03/05 00:47:21;;;;;;;;;;;6.40;99.90;;;;;;5009388;28;19929;-79
2022/03/05 00:49:50;;;;;;;;;;;6.40;99.90;;;;;;5043153;28;19925;-79
2022/03/05 00:52:18;;;;;;;;;;;6.40;99.90;;;;;;5024949;28;19929;-79
2022/03/05 00:54:46;;;;;;;;;;;6.40;99.90;;;;;;5009053;28;20382;-80
2022/03/05 00:57:14;;;;;;;;;;;6.30;99.90;;;;;;5026019;28;20406;-79
2022/03/05 00:59:43;;;;;;;;;;;6.50;99.90;;;;;;5009584;28;20417;-79
2022/03/05 01:02:11;;;;;;;;;;;6.30;99.90;;;;;;5027665;28;19929;-79
2022/03/05 01:04:40;;;;;;;;;;;6.40;99.90;;;;;;5026931;28;19925;-79
2022/03/05 01:07:09;;;;;;;;;;;6.30;99.90;;;;;;5026383;28;19933;-80
2022/03/05 01:09:37;;;;;;;;;;;6.40;99.90;;;;;;5024439;28;19929;-79
2022/03/05 01:12:04;;;;;;;;;;;6.40;99.90;;;;;;5007389;28;19929;-79
2022/03/05 01:14:33;;;;;;;;;;;6.40;99.90;;;;;;5042373;28;19925;-79
2022/03/05 01:17:01;;;;;;;;;;;6.40;99.90;;;;;;5007956;28;19926;-79
2022/03/05 01:19:29;;;;;;;;;;;6.40;99.90;;;;;;5003907;28;20145;-78
2022/03/05 01:21:57;;;;;;;;;;;6.40;99.90;;;;;;5004719;28;19936;-79
2022/03/05 01:24:25;;;;;;;;;;;6.30;99.90;;;;;;5005617;28;20138;-79
2022/03/05 01:26:53;;;;;;;;;;;6.30;99.90;;;;;;5004910;28;19925;-79
2022/03/05 01:29:22;;;;;;;;;;;4.90;99.90;;;;;;4988548;28;19937;-79
2022/03/05 01:31:50;;;;;;;;;;;6.20;99.90;;;;;;5005688;28;19936;-80
2022/03/05 01:34:18;;;;;;;;;;;6.20;99.90;;;;;;5022981;28;19925;-80
2022/03/05 01:36:47;;;;;;;;;;;6.20;99.90;;;;;;5022981;28;19936;-79
2022/03/05 01:39:16;;;;;;;;;;;6.20;99.90;;;;;;5010598;28;19928;-80
2022/03/05 01:41:46;;;;;;;;;;;6.20;99.90;;;;;;5042462;28;19943;-80
2022/03/05 01:44:13;;;;;;;;;;;6.20;99.90;;;;;;5010713;28;19926;-79
2022/03/05 01:46:41;;;;;;;;;;;6.20;99.90;;;;;;5028877;28;19925;-79
2022/03/05 01:49:11;;;;;;;;;;;6.20;99.90;;;;;;5028432;28;20279;-78
2022/03/05 01:51:39;;;;;;;;;;;6.20;99.90;;;;;;5028888;28;19931;-79
2022/03/05 01:54:09;;;;;;;;;;;6.20;99.90;;;;;;5012390;28;19940;-78
2022/03/05 01:56:38;;;;;;;;;;;6.20;99.90;;;;;;5030685;28;20529;-79
2022/03/05 01:59:07;;;;;;;;;;;6.20;99.90;;;;;;5013830;28;19936;-77
2022/03/05 02:01:35;;;;;;;;;;;6.10;99.90;;;;;;5047520;28;19936;-81
2022/03/05 02:04:03;;;;;;;;;;;6.10;99.90;;;;;;5029791;28;20358;-81
2022/03/05 02:06:33;;;;;;;;;;;6.00;99.90;;;;;;5046292;28;19925;-79
2022/03/05 02:09:03;;;;;;;;;;;6.00;99.90;;;;;;5046617;28;19943;-80
2022/03/05 02:11:36;;;;;;;;;;;7.40;99.90;;;;;;5032236;28;19929;-81
2022/03/05 02:14:05;;;;;;;;;;;6.00;99.90;;;;;;5046745;28;20406;-81
2022/03/05 02:16:33;;;;;;;;;;;6.00;99.90;;;;;;5046695;28;19926;-80
2022/03/05 02:19:02;;;;;;;;;;;5.90;99.90;;;;;;5026396;28;19925;-80
2022/03/05 02:21:29;;;;;;;;;;;5.90;99.90;;;;;;4661316;28;9999624;-80
2022/03/05 02:23:58;;;;;;;;;;;5.90;99.90;;;;;;5025027;28;19929;-78
2022/03/05 02:26:25;;;;;;;;;;;5.90;99.90;;;;;;5011255;28;19940;-80
2022/03/05 02:28:54;;;;;;;;;;;5.90;99.90;;;;;;4993256;28;19929;-79
2022/03/05 02:31:22;;;;;;;;;;;5.90;99.90;;;;;;5022565;28;19925;-79
2022/03/05 02:33:55;;;;;;;;;;;5.90;99.90;;;;;;5046948;28;19925;-80
2022/03/05 02:36:25;;;;;;;;;;;5.90;99.90;;;;;;5028162;28;19929;-79
2022/03/05 02:38:54;;;;;;;;;;;5.90;99.90;;;;;;5044903;28;19936;-78
2022/03/05 02:41:24;;;;;;;;;;;5.80;99.90;;;;;;5027645;28;19925;-78
2022/03/05 02:43:51;;;;;;;;;;;5.40;99.90;;;;;;5011182;28;19925;-79
2022/03/05 02:46:24;;;;;;;;;;;5.90;99.90;;;;;;5046301;28;19925;-79
2022/03/05 02:48:53;;;;;;;;;;;5.90;99.90;;;;;;5047744;28;19936;-77
2022/03/05 02:51:22;;;;;;;;;;;5.80;99.90;;;;;;5050721;28;19935;-79
2022/03/05 02:53:49;;;;;;;;;;;5.80;99.90;;;;;;5028820;28;19925;-78
2022/03/05 02:56:18;;;;;;;;;;;5.80;99.90;;;;;;5029450;28;19936;-79
2022/03/05 02:58:46;;;;;;;;;;;5.80;99.90;;;;;;5046881;28;19932;-79
2022/03/05 03:01:14;;;;;;;;;;;5.80;99.90;;;;;;5028693;28;20420;-80
2022/03/05 03:03:42;;;;;;;;;;;5.90;99.90;;;;;;5012463;28;19960;-79
2022/03/05 03:06:11;;;;;;;;;;;5.90;99.90;;;;;;5046992;28;19925;-78
2022/03/05 03:08:39;;;;;;;;;;;5.90;99.90;;;;;;5029161;28;19929;-79
2022/03/05 03:11:08;;;;;;;;;;;5.90;99.90;;;;;;5047117;28;19929;-78
2022/03/05 03:13:37;;;;;;;;;;;5.90;99.90;;;;;;5028352;28;19929;-79
2022/03/05 03:16:05;;;;;;;;;;;5.90;99.90;;;;;;5030017;28;19929;-79
2022/03/05 03:18:33;;;;;;;;;;;5.90;99.90;;;;;;5029077;28;19932;-76
2022/03/05 03:21:01;;;;;;;;;;;5.90;99.90;;;;;;5026954;28;19942;-79
2022/03/05 03:23:29;;;;;;;;;;;5.90;99.90;;;;;;5026201;28;19925;-78
2022/03/05 03:25:57;;;;;;;;;;;5.90;99.90;;;;;;5009878;28;19947;-80
2022/03/05 03:28:25;;;;;;;;;;;5.90;99.90;;;;;;5026124;28;19936;-78
2022/03/05 03:30:54;;;;;;;;;;;5.90;99.90;;;;;;5025770;28;19932;-80
2022/03/05 03:33:21;;;;;;;;;;;5.90;99.90;;;;;;5038771;28;19925;-81
2022/03/05 03:35:49;;;;;;;;;;;5.90;99.90;;;;;;5029763;28;19925;-80
2022/03/05 03:38:17;;;;;;;;;;;5.80;99.90;;;;;;5046029;28;19929;-81
2022/03/05 03:40:46;;;;;;;;;;;5.90;99.90;;;;;;5029557;28;19940;-78
2022/03/05 03:43:14;;;;;;;;;;;6.00;99.90;;;;;;5047744;28;19929;-79
2022/03/05 03:45:42;;;;;;;;;;;6.00;99.90;;;;;;5032339;28;19940;-80
2022/03/05 03:48:10;;;;;;;;;;;5.90;99.90;;;;;;5030596;28;19938;-78
2022/03/05 03:50:38;;;;;;;;;;;6.00;99.90;;;;;;5029464;28;19935;-80
2022/03/05 03:53:06;;;;;;;;;;;6.00;99.90;;;;;;5045361;28;19929;-78
2022/03/05 03:55:35;;;;;;;;;;;6.00;99.90;;;;;;5047002;28;19925;-80
2022/03/05 03:58:03;;;;;;;;;;;4.70;99.90;;;;;;5029354;28;19948;-80
2022/03/05 04:00:31;;;;;;;;;;;6.00;99.90;;;;;;5046772;28;20396;-78
2022/03/05 04:02:59;;;;;;;;;;;6.10;99.90;;;;;;5012540;28;19925;-79
2022/03/05 04:05:27;;;;;;;;;;;6.00;99.90;;;;;;5013421;28;19929;-80
2022/03/05 04:10:42;;;;;;;;;;;6.10;99.90;;;;;;5046660;28;20405;-79
2022/03/05 04:13:10;;;;;;;;;;;6.10;99.90;;;;;;5029824;28;19929;-79
2022/03/05 04:15:38;;;;;;;;;;;6.10;99.90;;;;;;5031200;28;19925;-80
2022/03/05 04:18:06;;;;;;;;;;;6.00;99.90;;;;;;5030803;28;19932;-79
2022/03/05 04:20:34;;;;;;;;;;;6.10;99.90;;;;;;5008984;28;19936;-81
2022/03/05 04:23:03;;;;;;;;;;;6.00;99.90;;;;;;5037951;28;19931;-81
2022/03/05 04:25:31;;;;;;;;;;;6.10;99.90;;;;;;5012165;28;19931;-79
2022/03/05 04:27:59;;;;;;;;;;;6.00;99.90;;;;;;5046569;28;19935;-79
2022/03/05 04:30:27;;;;;;;;;;;6.10;99.90;;;;;;5028548;28;19933;-78
2022/03/05 04:32:55;;;;;;;;;;;6.10;99.90;;;;;;5044779;28;19925;-78
2022/03/05 04:35:24;;;;;;;;;;;6.10;99.90;;;;;;5027611;28;19925;-78
2022/03/05 04:37:52;;;;;;;;;;;6.00;99.90;;;;;;5045777;28;19925;-78
2022/03/05 04:40:22;;;;;;;;;;;6.10;99.90;;;;;;4998490;28;19925;-79
2022/03/05 04:42:51;;;;;;;;;;;6.20;99.90;;;;;;5025072;28;19937;-77
2022/03/05 04:45:19;;;;;;;;;;;6.10;99.90;;;;;;5025217;28;19925;-78
2022/03/05 04:47:47;;;;;;;;;;;6.00;99.90;;;;;;5008111;28;19939;-78
2022/03/05 04:50:15;;;;;;;;;;;6.10;99.90;;;;;;5038699;28;20275;-78
2022/03/05 04:52:43;;;;;;;;;;;6.00;99.90;;;;;;5045576;28;19935;-79
2022/03/05 04:55:11;;;;;;;;;;;5.80;99.90;;;;;;5027814;28;19929;-80
2022/03/05 04:57:41;;;;;;;;;;;6.00;99.90;;;;;;5029052;28;19925;-79
2022/03/05 05:00:09;;;;;;;;;;;6.00;99.90;;;;;;5011411;28;19931;-79
2022/03/05 05:02:37;;;;;;;;;;;6.00;99.90;;;;;;5011886;28;19929;-80
2022/03/05 05:05:06;;;;;;;;;;;6.00;99.90;;;;;;5027404;28;19933;-81
2022/03/05 05:07:34;;;;;;;;;;;6.00;99.90;;;;;;5027798;28;19929;-79
2022/03/05 05:10:02;;;;;;;;;;;6.00;99.90;;;;;;5028595;28;19925;-77
2022/03/05 05:12:30;;;;;;;;;;;6.00;99.90;;;;;;5029044;28;19926;-82
2022/03/05 05:14:58;;;;;;;;;;;6.00;99.90;;;;;;5010945;28;19925;-78
2022/03/05 05:17:26;;;;;;;;;;;6.20;99.90;;;;;;5012451;28;19933;-80
2022/03/05 05:19:55;;;;;;;;;;;6.10;99.90;;;;;;5047193;28;19925;-82
2022/03/05 05:22:23;;;;;;;;;;;6.10;99.90;;;;;;5046817;28;19925;-80
2022/03/05 05:24:51;;;;;;;;;;;6.00;99.90;;;;;;5028516;28;20496;-80
2022/03/05 05:27:19;;;;;;;;;;;6.10;99.90;;;;;;5029168;28;19925;-82
2022/03/05 05:29:47;;;;;;;;;;;6.10;99.90;;;;;;5046945;28;19936;-82
2022/03/05 05:32:15;;;;;;;;;;;6.10;99.90;;;;;;5029649;28;19925;-80
2022/03/05 05:34:44;;;;;;;;;;;6.10;99.90;;;;;;5047819;28;19925;-80
2022/03/05 05:37:16;;;;;;;;;;;6.10;99.90;;;;;;5030569;28;19925;-78
2022/03/05 05:39:44;;;;;;;;;;;7.20;99.90;;;;;;5029960;28;19929;-81
2022/03/05 05:42:12;;;;;;;;;;;6.10;99.90;;;;;;5047792;28;19933;-79
2022/03/05 05:44:40;;;;;;;;;;;6.10;99.90;;;;;;5011994;28;20370;-79
2022/03/05 05:47:09;;;;;;;;;;;6.10;99.90;;;;;;5043359;28;19926;-79
2022/03/05 05:49:37;;;;;;;;;;;6.10;99.90;;;;;;5043065;28;20017;-79
2022/03/05 05:52:06;;;;;;;;;;;6.10;99.90;;;;;;5043817;28;19925;-80
2022/03/05 05:54:34;;;;;;;;;;;6.10;99.90;;;;;;5025349;28;19929;-79
2022/03/05 05:57:04;;;;;;;;;;;6.10;99.90;;;;;;5042239;28;19925;-79
2022/03/05 05:59:32;;;;;;;;;;;6.10;99.90;;;;;;5026651;28;20481;-78
2022/03/05 06:02:01;;;;;;;;;;;6.10;99.90;;;;;;5027353;28;19932;-78
2022/03/05 06:04:30;;;;;;;;;;;6.10;99.90;;;;;;5027705;28;19925;-79
2022/03/05 06:06:58;;;;;;;;;;;6.30;99.90;;;;;;5024750;28;19929;-78
2022/03/05 06:09:26;;;;;;;;;;;6.10;99.90;;;;;;5043817;28;19925;-80
2022/03/05 06:11:54;;;;;;;;;;;6.10;99.90;;;;;;5008887;28;19932;-79
2022/03/05 06:14:22;;;;;;;;;;;6.10;99.90;;;;;;5025757;28;19936;-79
2022/03/05 06:16:52;;;;;;;;;;;6.20;99.90;;;;;;5042704;28;19929;-79
2022/03/05 06:19:19;;;;;;;;;;;6.10;99.90;;;;;;5037202;28;19936;-77
2022/03/05 06:21:47;;;;;;;;;;;6.10;99.90;;;;;;5009908;28;19940;-80
2022/03/05 06:24:15;;;;;;;;;;;6.10;99.90;;;;;;5043300;28;19929;-79
2022/03/05 06:26:44;;;;;;;;;;;6.10;99.90;;;;;;5044110;28;19928;-81
2022/03/05 06:29:12;;;;;;;;;;;6.20;99.90;;;;;;5027858;28;19941;-81
2022/03/05 06:31:40;;;;;;;;;;;6.10;99.90;;;;;;5033273;28;19931;-79
2022/03/05 06:34:08;;;;;;;;;;;6.10;99.90;;;;;;5032406;28;19939;-80
2022/03/05 06:36:37;;;;;;;;;;;6.40;99.90;;;;;;5048525;28;19931;-79
2022/03/05 06:39:05;;;;;;;;;;;6.10;99.90;;;;;;5013844;28;19925;-79
2022/03/05 06:41:34;;;;;;;;;;;6.10;99.90;;;;;;5028818;28;19925;-77
2022/03/05 06:44:03;;;;;;;;;;;6.10;99.90;;;;;;5029077;28;19931;-79
2022/03/05 06:46:33;;;;;;;;;;;6.10;99.90;;;;;;5012853;28;19925;-78
2022/03/05 06:49:02;;;;;;;;;;;6.10;99.90;;;;;;5029937;28;19932;-79
2022/03/05 06:51:30;;;;;;;;;;;6.10;99.90;;;;;;5029463;28;20272;-78
2022/03/05 06:53:59;;;;;;;;;;;6.00;99.90;;;;;;5012922;28;19933;-79
2022/03/05 06:56:26;;;;;;;;;;;6.00;99.90;;;;;;5047775;28;19926;-79
2022/03/05 06:58:54;;;;;;;;;;;6.10;99.90;;;;;;5030490;28;20390;-80
2022/03/05 07:01:22;;;;;;;;;;;6.00;99.90;;;;;;5047930;28;19931;-79
2022/03/05 07:03:51;;;;;;;;;;;6.10;99.90;;;;;;5013971;28;19929;-80
2022/03/05 07:06:19;;;;;;;;;;;6.00;99.90;;;;;;5047108;28;19940;-80
2022/03/05 07:08:47;;;;;;;;;;;6.00;99.90;;;;;;5009064;28;19936;-79
2022/03/05 07:11:14;;;;;;;;;;;6.10;99.90;;;;;;5038625;28;19925;-79
2022/03/05 07:13:42;;;;;;;;;;;6.00;99.90;;;;;;5012631;28;19932;-79
2022/03/05 07:16:11;;;;;;;;;;;6.00;99.90;;;;;;5027897;28;19929;-79
2022/03/05 07:18:40;;;;;;;;;;;6.00;99.90;;;;;;5025546;28;20393;-81
2022/03/05 07:21:08;;;;;;;;;;;6.10;99.90;;;;;;5048014;28;19933;-78
2022/03/05 07:23:40;;;;;;;;;;;6.00;99.90;;;;;;5033263;28;19929;-78
2022/03/05 07:26:13;;;;;;;;;;;6.10;99.90;;;;;;5032533;28;19925;-78
2022/03/05 07:28:46;;;;;;;;;;;6.10;99.90;;;;;;5030340;28;19925;-79
2022/03/05 07:31:15;;;;;;;;;;;6.30;99.90;;;;;;5048303;28;19925;-79
2022/03/05 07:33:43;;;;;;;;;;;6.00;99.90;;;;;;5012527;28;19931;-78
2022/03/05 07:36:12;;;;;;;;;;;6.00;99.90;;;;;;5012914;28;19936;-84
2022/03/05 07:38:53;;;;;;;;;;;;;;;;;;;;;
2022/03/05 07:41:48;;;;;;;;;;;6.00;99.90;;;;;;5014501;28;19917;-78
2022/03/05 07:44:19;;;;;;;;;;;6.10;99.90;;;;;;5027908;28;19937;-78
2022/03/05 07:46:49;;;;;;;;;;;4.90;99.90;;;;;;5027563;28;19929;-79
2022/03/05 07:49:18;;;;;;;;;;;6.40;99.90;;;;;;5013461;28;19929;-79
2022/03/05 07:51:50;;;;;;;;;;;6.10;99.90;;;;;;5022308;28;19935;-78
2022/03/05 07:54:43;;;;;;;;;;;6.10;99.90;;;;;;5045420;28;19940;-78
2022/03/05 07:57:13;;;;;;;;;;;6.10;99.90;;;;;;5040381;28;19921;-77
2022/03/05 07:59:43;;;;;;;;;;;6.10;99.90;;;;;;5034803;28;19925;-78
2022/03/05 08:02:15;;;;;;;;;;;6.00;99.90;;;;;;5027578;28;19933;-78
2022/03/05 08:04:47;;;;;;;;;;;6.20;99.90;;;;;;5029646;28;19932;-80
2022/03/05 08:07:55;;;;;;;;;;;6.10;99.90;;;;;;5027612;28;19929;-78
2022/03/05 08:10:24;;;;;;;;;;;6.20;99.90;;;;;;5028414;28;20211;-78
2022/03/05 08:12:52;;;;;;;;;;;6.10;99.90;;;;;;5025957;28;19940;-79
2022/03/05 08:15:20;;;;;;;;;;;6.20;99.90;;;;;;5025978;28;20274;-80
2022/03/05 08:17:55;;;;;;;;;;;6.20;99.90;;;;;;5005267;28;19930;-78
2022/03/05 08:20:24;;;;;;;;;;;6.70;99.90;;;;;;5031556;28;19925;-79
2022/03/05 08:22:52;;;;;;;;;;;6.20;99.90;;;;;;5024863;28;19936;-80
2022/03/05 08:25:20;;;;;;;;;;;6.20;99.90;;;;;;5025395;28;20004;-79
2022/03/05 08:27:48;;;;;;;;;;;6.30;99.90;;;;;;5026238;28;19929;-79
2022/03/05 08:30:16;;;;;;;;;;;6.20;99.90;;;;;;5043879;28;19932;-80
2022/03/05 08:32:44;;;;;;;;;;;6.30;99.90;;;;;;5026219;28;20322;-79
2022/03/05 08:35:12;;;;;;;;;;;6.30;99.90;;;;;;5023883;28;20196;-80
2022/03/05 08:37:41;;;;;;;;;;;6.40;99.90;;;;;;5023997;28;19925;-81
2022/03/05 08:40:09;;;;;;;;;;;6.30;99.90;;;;;;5025277;28;19929;-81
2022/03/05 08:42:38;;;;;;;;;;;6.30;99.90;;;;;;5007220;28;19936;-80
2022/03/05 08:45:06;;;;;;;;;;;6.40;99.90;;;;;;5041688;28;19925;-82
2022/03/05 08:47:35;;;;;;;;;;;6.40;99.90;;;;;;5043496;28;19928;-80
2022/03/05 08:50:03;;;;;;;;;;;6.30;99.90;;;;;;5024863;28;19929;-80
2022/03/05 08:52:36;;;;;;;;;;;6.30;99.90;;;;;;5040878;28;20012;-79
2022/03/05 08:55:05;;;;;;;;;;;6.40;99.90;;;;;;5042311;28;19931;-80
2022/03/05 08:57:33;;;;;;;;;;;6.40;99.90;;;;;;5024570;28;19929;-79
2022/03/05 09:00:03;;;;;;;;;;;6.40;99.90;;;;;;5017162;28;19929;-79
2022/03/05 09:02:33;;;;;;;;;;;6.40;99.90;;;;;;5033860;28;19929;-78
2022/03/05 09:05:05;;;;;;;;;;;6.40;99.90;;;;;;5024355;28;19924;-79
2022/03/05 09:07:33;;;;;;;;;;;6.50;99.90;;;;;;5026140;28;19936;-79
2022/03/05 09:10:00;;;;;;;;;;;6.50;99.90;;;;;;5021508;28;19925;-80
2022/03/05 09:12:30;;;;;;;;;;;6.50;99.90;;;;;;5021586;28;22135;-80
2022/03/05 09:14:58;;;;;;;;;;;6.50;99.90;;;;;;5024380;28;19929;-80
2022/03/05 09:17:26;;;;;;;;;;;6.70;99.90;;;;;;5025179;28;19935;-78
2022/03/05 09:19:54;;;;;;;;;;;6.40;99.90;;;;;;5023833;28;19940;-79
2022/03/05 09:22:24;;;;;;;;;;;6.00;99.90;;;;;;5040997;28;19929;-79
2022/03/05 09:24:52;;;;;;;;;;;6.70;99.90;;;;;;5023940;28;19939;-79
2022/03/05 09:27:22;;;;;;;;;;;6.90;99.90;;;;;;5042582;28;19925;-79
2022/03/05 09:29:51;;;;;;;;;;;6.60;99.90;;;;;;5041091;28;19931;-79
2022/03/05 09:32:19;;;;;;;;;;;6.70;99.90;;;;;;5041631;28;19951;-79
2022/03/05 09:34:48;;;;;;;;;;;6.70;99.90;;;;;;5042808;28;19925;-80
2022/03/05 09:37:16;;;;;;;;;;;6.80;99.90;;;;;;5043251;28;20553;-79
2022/03/05 09:39:46;;;;;;;;;;;6.70;99.90;;;;;;5041239;28;19932;-80
2022/03/05 09:42:14;;;;;;;;;;;6.80;99.90;;;;;;5024933;28;19929;-79
2022/03/05 09:44:42;;;;;;;;;;;6.80;99.90;;;;;;5006910;28;19939;-79
2022/03/05 09:47:11;;;;;;;;;;;6.80;99.90;;;;;;5003951;28;19937;-79
2022/03/05 09:49:41;;;;;;;;;;;6.90;99.90;;;;;;5023663;28;19933;-80
2022/03/05 09:52:10;;;;;;;;;;;6.90;99.90;;;;;;5024045;28;19929;-79
2022/03/05 09:54:39;;;;;;;;;;;7.00;99.90;;;;;;5039347;28;19925;-80
2022/03/05 09:57:08;;;;;;;;;;;7.00;99.90;;;;;;5042250;28;19925;-80
2022/03/05 09:59:36;;;;;;;;;;;7.00;99.90;;;;;;5042642;28;19932;-81
2022/03/05 10:02:05;;;;;;;;;;;7.00;99.90;;;;;;5024129;28;19925;-79
2022/03/05 10:04:33;;;;;;;;;;;7.10;99.90;;;;;;5042995;28;19935;-80
2022/03/05 10:07:08;;;;;;;;;;;7.10;99.90;;;;;;5025166;28;19925;-80
2022/03/05 10:09:37;;;;;;;;;;;7.10;99.90;;;;;;5009053;28;19939;-80
2022/03/05 10:12:24;;;;;;;;;;;7.10;99.90;;;;;;5026060;28;19925;-79
2022/03/05 10:15:23;;;;;;;;;;;7.10;99.90;;;;;;5033947;28;20377;-80
2022/03/05 10:17:50;;;;;;;;;;;7.00;99.90;;;;;;5018574;28;19929;-80
2022/03/05 10:20:19;;;;;;;;;;;7.00;99.90;;;;;;5042723;28;19929;-82
2022/03/05 10:22:56;;;;;;;;;;;7.00;99.90;;;;;;5044174;28;19925;-81
2022/03/05 10:25:31;;;;;;;;;;;7.00;99.90;;;;;;5009825;28;19929;-82
2022/03/05 10:28:00;;;;;;;;;;;7.00;99.90;;;;;;5027284;28;19925;-81
2022/03/05 10:30:32;;;;;;;;;;;7.20;99.90;;;;;;5026836;28;19929;-82
2022/03/05 10:33:00;;;;;;;;;;;7.00;99.90;;;;;;5006000;28;19930;-81
2022/03/05 10:35:28;;;;;;;;;;;7.00;99.90;;;;;;5042433;28;20537;-80
2022/03/05 10:37:56;;;;;;;;;;;6.90;99.90;;;;;;5025096;28;19932;-81
2022/03/05 10:40:33;;;;;;;;;;;6.90;99.90;;;;;;5044450;28;19933;-81
2022/03/05 10:43:01;;;;;;;;;;;6.90;99.90;;;;;;5026142;28;19933;-81
2022/03/05 10:45:30;;;;;;;;;;;6.90;99.90;;;;;;5019786;28;19932;-81
2022/03/05 10:47:59;;;;;;;;;;;6.90;99.90;;;;;;5024196;28;19933;-82
2022/03/05 10:50:29;;;;;;;;;;;7.00;99.90;;;;;;5024456;28;19926;-82
2022/03/05 10:53:01;;;;;;;;;;;6.80;99.90;;;;;;5018397;28;19925;-79
2022/03/05 10:55:36;;;;;;;;;;;6.90;99.90;;;;;;5025262;28;19932;-80
2022/03/05 10:58:13;;;;;;;;;;;6.80;99.90;;;;;;5027891;28;19936;-79
2022/03/05 11:00:42;;;;;;;;;;;6.80;99.90;;;;;;5037058;28;20090;-81
2022/03/05 11:03:16;;;;;;;;;;;6.80;99.90;;;;;;5044626;28;20008;-79
2022/03/05 11:05:50;;;;;;;;;;;6.80;99.90;;;;;;5041119;28;19933;-79
2022/03/05 11:08:18;;;;;;;;;;;6.90;99.90;;;;;;5020886;28;19929;-78
2022/03/05 11:10:51;;;;;;;;;;;6.90;99.90;;;;;;5007116;28;19928;-78
2022/03/05 11:13:28;;;;;;;;;;;6.90;99.90;;;;;;5037567;28;19933;-77
2022/03/05 11:15:59;;;;;;;;;;;6.90;99.90;;;;;;4984744;28;19933;-80
2022/03/05 11:18:27;;;;;;;;;;;6.90;99.90;;;;;;4986043;28;19952;-80
2022/03/05 11:21:05;;;;;;;;;;;7.00;99.90;;;;;;4985667;28;19929;-80
2022/03/05 11:23:34;;;;;;;;;;;7.00;99.90;;;;;;4988831;28;20309;-81
2022/03/05 11:26:07;;;;;;;;;;;7.00;99.90;;;;;;5005915;28;19926;-81
2022/03/05 11:28:48;;;;;;;;;;;6.90;99.90;;;;;;4981844;28;20174;-80
2022/03/05 11:31:30;;;;;;;;;;;7.20;99.90;;;;;;5001934;28;19933;-81
2022/03/05 11:34:14;;;;;;;;;;;7.00;99.90;;;;;;4992775;28;19925;-81
2022/03/05 11:36:42;;;;;;;;;;;7.00;99.90;;;;;;5010043;28;19933;-82
2022/03/05 11:39:12;;;;;;;;;;;7.00;99.90;;;;;;4984267;28;19947;-81
2022/03/05 11:41:51;;;;;;;;;;;7.30;99.90;;;;;;5007319;28;19937;-81
2022/03/05 11:44:22;;;;;;;;;;;7.30;99.90;;;;;;5009053;28;19947;-80
2022/03/05 11:47:10;;;;;;;;;;;7.10;99.90;;;;;;5010863;28;19934;-78
2022/03/05 11:50:03;;;;;;;;;;;7.00;99.90;;;;;;4991539;28;20295;-81
2022/03/05 11:52:43;;;;;;;;;;;7.10;99.90;;;;;;4980871;28;19934;-81
2022/03/05 11:55:12;;;;;;;;;;;6.60;99.90;;;;;;4986287;28;19929;-88
2022/03/05 11:58:16;;;;;;;;;;;7.20;99.90;;;;;;4976596;28;19934;-86
2022/03/05 12:05:58;;;;;;;;;;;5.60;99.90;;;;;;4801002;29;19930;-89
2022/03/05 12:09:45;;;;;;;;;;;7.10;99.90;;;;;;4795245;29;19936;-89
2022/03/05 12:12:46;;;;;;;;;;;6.80;99.90;;;;;;4839407;29;19937;-87
2022/03/05 12:41:30;;;;;;;;;;;;;;;;;;;;;
2022/03/05 12:49:53;;;;;;;;;;;7.00;99.90;;;;;;4832872;29;19935;-86
2022/03/05 13:06:03;;;;;;;;;;;;;;;;;;;;;
2022/03/05 13:17:49;;;;;;;;;;;;;;;;;;;;;
2022/03/05 13:21:16;;;;;;;;;;;5.30;99.90;;;;;;4846508;29;19928;-85
2022/03/05 13:28:48;;;;;;;;;;;7.70;99.90;;;;;;4922809;29;19928;-86
2022/03/05 13:44:03;;;;;;;;;;;7.20;99.90;;;;;;4892722;29;19915;-85
2022/03/05 13:46:55;;;;;;;;;;;7.30;99.90;;;;;;4928733;29;19950;-84
2022/03/05 13:49:33;;;;;;;;;;;7.40;99.90;;;;;;4927537;29;19935;-85
2022/03/05 13:52:14;;;;;;;;;;;7.30;99.90;;;;;;4911133;29;19927;-86
2022/03/05 13:54:58;;;;;;;;;;;8.00;99.90;;;;;;4926877;29;20476;-86
2022/03/05 13:57:42;;;;;;;;;;;7.40;99.90;;;;;;4926861;29;19987;-84
2022/03/05 14:00:46;;;;;;;;;;;7.60;99.90;;;;;;4928125;29;19927;-86
2022/03/05 14:03:24;;;;;;;;;;;7.40;99.90;;;;;;4928898;29;19927;-83
2022/03/05 14:07:15;;;;;;;;;;;7.40;99.90;;;;;;4928836;29;19931;-84
2022/03/05 14:10:16;;;;;;;;;;;7.60;99.90;;;;;;4944713;29;20406;-85
2022/03/05 14:12:52;;;;;;;;;;;7.50;99.90;;;;;;4986411;28;19936;-86
2022/03/05 14:15:46;;;;;;;;;;;;;;;;;;;;;
2022/03/05 14:18:30;;;;;;;;;;;7.80;99.90;;;;;;4984829;28;19926;-82
2022/03/05 14:21:04;;;;;;;;;;;7.90;99.90;;;;;;4981490;28;19930;-83
2022/03/05 14:23:40;;;;;;;;;;;9.50;99.90;;;;;;4979544;28;20002;-83
2022/03/05 14:26:32;;;;;;;;;;;6.50;99.90;;;;;;4968219;28;19929;-83
2022/03/05 14:29:24;;;;;;;;;;;8.10;99.90;;;;;;4969125;28;19950;-82
2022/03/05 14:31:55;;;;;;;;;;;7.80;99.90;;;;;;4984340;28;19926;-82
2022/03/05 14:34:33;;;;;;;;;;;7.80;99.90;;;;;;4967793;28;19935;-83
2022/03/05 14:37:03;;;;;;;;;;;9.30;99.90;;;;;;4984341;28;19940;-83
2022/03/05 14:39:53;;;;;;;;;;;7.70;99.90;;;;;;4969029;28;19934;-83
2022/03/05 14:42:24;;;;;;;;;;;7.70;99.90;;;;;;4981148;28;19930;-83
2022/03/05 14:44:53;;;;;;;;;;;8.00;99.90;;;;;;4983977;28;19926;-82
2022/03/05 14:47:24;;;;;;;;;;;7.70;99.90;;;;;;4985460;28;19970;-84
2022/03/05 14:50:03;;;;;;;;;;;6.50;99.90;;;;;;4969156;28;19926;-83
2022/03/05 14:53:09;;;;;;;;;;;;;;;;;;;;;
2022/03/05 14:56:04;;;;;;;;;;;6.10;99.90;;;;;;4952373;29;19930;-85
2022/03/05 14:59:35;;;;;;;;;;;8.10;99.90;;;;;;4922412;29;20079;-82
2022/03/05 15:02:44;;;;;;;;;;;;;;;;;;;;;
2022/03/05 15:05:49;;;;;;;;;;;7.90;99.90;;;;;;4958958;29;20303;-84
2022/03/05 15:08:35;;;;;;;;;;;7.70;99.90;;;;;;4942009;29;19968;-82
2022/03/05 15:11:27;;;;;;;;;;;8.00;99.90;;;;;;4887531;29;19934;-81
2022/03/05 15:14:01;;;;;;;;;;;7.70;99.90;;;;;;4969960;28;19937;-84
2022/03/05 15:16:36;;;;;;;;;;;7.80;99.90;;;;;;5039014;28;20014;-82
2022/03/05 15:19:11;;;;;;;;;;;7.60;99.90;;;;;;5040863;28;19944;-81
2022/03/05 15:35:14;;;;;;;;;;;;;;;;;;;;;
2022/03/05 16:00:03;;;;;;;;;;;8.30;99.90;;;;;;4681894;30;19919;-90
2022/03/05 16:03:33;;;;;;;;;;;7.40;99.90;;;;;;4864887;28;19926;-90
2022/03/05 16:06:36;;;;;;;;;;;7.70;99.90;;;;;;4971376;28;19936;-84
2022/03/05 16:09:29;;;;;;;;;;;8.70;99.90;;;;;;5012472;28;19933;-82
2022/03/05 16:11:58;;;;;;;;;;;9.20;99.90;;;;;;5025733;28;19929;-87
2022/03/05 16:14:26;;;;;;;;;;;7.30;99.90;;;;;;5007419;28;19914;-89
2022/03/05 16:17:04;;;;;;;;;;;7.40;99.90;;;;;;5042689;28;19924;-86
2022/03/05 16:19:35;;;;;;;;;;;7.40;99.90;;;;;;5010266;28;19920;-85
2022/03/05 16:22:13;;;;;;;;;;;7.40;99.90;;;;;;4622845;28;10000370;-87
2022/03/05 16:24:41;;;;;;;;;;;7.40;99.90;;;;;;5021259;28;19925;-88
2022/03/05 16:27:12;;;;;;;;;;;7.40;99.90;;;;;;5008220;28;19926;-87
2022/03/05 16:29:43;;;;;;;;;;;7.40;99.90;;;;;;5011262;28;19933;-87
2022/03/05 16:32:15;;;;;;;;;;;7.30;99.90;;;;;;5025202;28;19925;-86
2022/03/05 16:38:48;;;;;;;;;;;7.30;99.90;;;;;;5043298;28;19932;-87
2022/03/05 16:41:23;;;;;;;;;;;7.30;99.90;;;;;;5016303;28;19927;-87
2022/03/05 16:43:58;;;;;;;;;;;7.30;99.90;;;;;;5026228;28;19920;-88
2022/03/05 16:46:34;;;;;;;;;;;7.50;99.90;;;;;;5012960;28;19939;-87
2022/03/05 16:49:04;;;;;;;;;;;7.30;99.90;;;;;;5014726;28;19920;-88
2022/03/05 16:51:34;;;;;;;;;;;7.20;99.90;;;;;;5028042;28;19909;-88
2022/03/05 16:57:25;;;;;;;;;;;7.10;99.90;;;;;;4985862;28;19926;-87
2022/03/05 17:00:03;;;;;;;;;;;7.10;99.90;;;;;;4973300;28;19933;-89
2022/03/05 17:06:15;;;;;;;;;;;7.10;99.90;;;;;;4977513;28;19932;-91
2022/03/05 17:08:42;;;;;;;;;;;7.10;99.90;;;;;;4983065;28;19926;-90
2022/03/05 17:11:32;;;;;;;;;;;7.10;99.90;;;;;;4983149;28;19926;-91
2022/03/05 17:14:19;;;;;;;;;;;7.10;99.90;;;;;;4978958;28;19932;-89
2022/03/05 17:16:55;;;;;;;;;;;7.20;99.90;;;;;;4977848;28;19930;-91